Belle Valley, Ohio
Current Conditions -  °F | °C
As of 5:53 PM on Tuesday 27 Jan 2015 (Local Time) from KZZV Reporting Station
Overcast Overcast  
Wind Chill: 10°   Ceiling: 2900
Heat Index: 20°   Visibility: 10mi
Dew Point: 13°   Wind: 8mph
Humidity: 74%   Direction: 330°NNW
Pressure: 30.11"   Gusts: NA
Location:  39.79°N, 81.56°W
Report Text: KZZV 272253Z AUTO 33007KT 10SM OVC029 M07/M11 A3011 RMK AO2 SNE21 SLP211 P0000 T10671106
Loading
Personal Weather Stations






























Interactive Weather Map New forecast layout! Learn more

10-Day Weather Forecast

Advertisements
Track Severe Weather on mobile